This is the latest recevied weather packets stored in our database for station/object JA0ZJX-13. If no packets are shown the sender has not sent any weather packets the latest 10 day(s).
| Time | Temp. | Humidity | Pressure | Rain* | Wind** | Luminosity | Snow |
|---|---|---|---|---|---|---|---|
| 1777850017 | 18.89° C | 72% | 1001 hPa | 0 mm | - | 221 W/m² | - |
| 1777849407 | 18.33° C | 74% | 1000.8 hPa | 0 mm | - | 214 W/m² | - |
| 1777848820 | 18.33° C | 75% | 1000.7 hPa | 0 mm | - | 174 W/m² | - |
| 1777848209 | 18.33° C | 77% | 1000.6 hPa | 0 mm | - | 84 W/m² | - |
| 1777847619 | 18.33° C | 77% | 1000.4 hPa | 0 mm | - | 114 W/m² | - |
| 1777847008 | 17.22° C | 83% | 1000.3 hPa | 0 mm | - | 160 W/m² | - |
| 1777846421 | 16.11° C | 88% | 1000.4 hPa | 0 mm | - | 155 W/m² | - |
| 1777845811 | 15.56° C | 87% | 1000.2 hPa | 0.25 mm | - | 114 W/m² | - |
| 1777845219 | 15.56° C | 87% | 1000 hPa | 0.25 mm | - | 69 W/m² | - |
| 1777844612 | 15° C | 87% | 1000.3 hPa | 0.51 mm | - | 28 W/m² | - |
| 1777844022 | 15° C | 88% | 1000.4 hPa | 0.51 mm | - | 18 W/m² | - |
| 1777843411 | 15° C | 88% | 1000.5 hPa | 0.51 mm | - | 18 W/m² | - |
| 1777842821 | 15.56° C | 88% | 1000.3 hPa | 0.76 mm | - | 12 W/m² | - |
| 1777842213 | 15.56° C | 88% | 999.6 hPa | 0.51 mm | - | 12 W/m² | - |
| 1777841622 | 16.11° C | 88% | 999.5 hPa | 1.02 mm | - | 14 W/m² | - |
| 1777841010 | 16.67° C | 86% | 999.4 hPa | 1.02 mm | - | 11 W/m² | - |
| 1777840419 | 18.33° C | 86% | 999 hPa | 1.27 mm | - | 5 W/m² | - |
| 1777839810 | 18.89° C | 86% | 998.1 hPa | 1.78 mm | - | 7 W/m² | - |
| 1777839218 | 18.89° C | 87% | 998 hPa | 2.29 mm | - | 0 W/m² | - |
| 1777838608 | 18.33° C | 87% | 997.8 hPa | 3.05 mm | - | 0 W/m² | - |
| 1777838016 | 18.33° C | 88% | 997.6 hPa | 2.54 mm | - | 0 W/m² | - |
| 1777837410 | 17.78° C | 88% | 997.3 hPa | 2.29 mm | - | 0 W/m² | - |
| 1777836819 | 17.78° C | 88% | 997.1 hPa | 2.29 mm | - | 0 W/m² | - |
| 1777836208 | 17.78° C | 88% | 997.4 hPa | 2.29 mm | - | 0 W/m² | - |
| 1777835620 | 17.78° C | 87% | 997.5 hPa | 2.03 mm | - | 0 W/m² | - |
* Rain latest hour (hover to see other rain measurements)
** Current wind speed in m/s (hover to see current wind gust speed)